createdAt,value
2022-08-03T00:02:24.431Z,40.70
2022-08-03T00:07:27.350Z,40.30
2022-08-03T00:12:31.572Z,40.53
2022-08-03T00:17:52.630Z,40.22
2022-08-03T00:22:56.728Z,40.40
2022-08-03T00:28:00.975Z,40.22
2022-08-03T00:33:04.419Z,40.42
2022-08-03T00:38:07.491Z,39.80
2022-08-03T00:43:11.822Z,40.33
2022-08-03T00:48:23.295Z,40.05
2022-08-03T00:53:37.308Z,40.55
2022-08-03T00:58:41.607Z,40.30
2022-08-03T01:03:44.508Z,40.25
2022-08-03T01:09:01.266Z,40.72
2022-08-03T01:14:18.244Z,40.47
2022-08-03T01:19:40.389Z,40.50
2022-08-03T01:24:51.598Z,40.42
2022-08-03T01:30:06.414Z,40.40
2022-08-03T01:35:12.147Z,40.53
2022-08-03T01:40:16.606Z,40.13
2022-08-03T01:45:23.254Z,40.45
2022-08-03T01:50:28.748Z,40.17
2022-08-03T01:55:33.904Z,40.65
2022-08-03T02:00:39.502Z,40.72
2022-08-03T02:05:44.422Z,40.42
2022-08-03T02:10:48.713Z,40.42
2022-08-03T02:15:54.269Z,40.00
2022-08-03T02:20:58.037Z,40.10
2022-08-03T02:26:05.731Z,39.92
2022-08-03T02:31:16.446Z,39.88
2022-08-03T02:36:25.259Z,40.20
2022-08-03T02:41:32.715Z,40.55
2022-08-03T02:46:40.716Z,40.17
2022-08-03T02:51:46.038Z,40.10
2022-08-03T02:56:49.832Z,40.40
2022-08-03T03:01:56.006Z,40.33
2022-08-03T03:07:00.133Z,40.10
2022-08-03T03:12:07.108Z,39.65
2022-08-03T03:17:13.108Z,40.45
2022-08-03T03:22:18.095Z,40.95
2022-08-03T03:27:21.667Z,40.70
2022-08-03T03:32:27.870Z,40.92
2022-08-03T03:37:30.974Z,40.35
2022-08-03T03:42:34.003Z,41.17
2022-08-03T03:47:38.999Z,40.80
2022-08-03T03:52:42.259Z,41.58
2022-08-03T03:57:45.183Z,40.83
2022-08-03T04:02:49.644Z,41.15
2022-08-03T04:08:16.556Z,40.88
2022-08-03T04:13:21.827Z,40.78
2022-08-03T04:18:29.724Z,40.35
2022-08-03T04:23:36.744Z,40.03
2022-08-03T04:28:42.025Z,40.33
2022-08-03T04:33:47.241Z,40.08
2022-08-03T04:39:00.389Z,40.28
2022-08-03T04:44:05.826Z,40.05
2022-08-03T04:49:11.252Z,40.30
2022-08-03T04:54:16.057Z,40.33
2022-08-03T04:59:19.077Z,40.45
2022-08-03T05:04:23.348Z,40.33
2022-08-03T05:09:49.928Z,40.83
2022-08-03T05:14:53.441Z,40.22
2022-08-03T05:19:57.879Z,41.03
2022-08-03T05:25:02.287Z,40.30
2022-08-03T05:30:30.937Z,40.15
2022-08-03T05:36:01.382Z,40.42
2022-08-03T05:41:20.263Z,41.10
2022-08-03T05:46:24.465Z,40.55
2022-08-03T05:51:28.947Z,41.20
2022-08-03T05:56:32.376Z,41.05
2022-08-03T06:01:35.355Z,41.28
2022-08-03T06:06:39.794Z,40.97
2022-08-03T06:11:42.710Z,41.15
2022-08-03T06:16:48.878Z,42.20
2022-08-03T06:21:53.230Z,41.83
2022-08-03T06:27:07.233Z,41.85
2022-08-03T06:32:10.173Z,41.97
2022-08-03T06:37:14.532Z,41.95
2022-08-03T06:42:17.702Z,41.88
2022-08-03T06:47:20.916Z,41.65
2022-08-03T06:52:37.544Z,42.50
2022-08-03T06:57:41.683Z,41.70
2022-08-03T07:02:44.707Z,42.42
2022-08-03T07:07:49.222Z,42.00
2022-08-03T07:12:56.161Z,42.33
2022-08-03T07:18:14.983Z,43.13
2022-08-03T07:23:19.481Z,42.28
2022-08-03T07:28:22.584Z,42.30
2022-08-03T07:33:25.615Z,42.10
2022-08-03T07:38:30.169Z,42.20
2022-08-03T07:43:33.068Z,42.60
2022-08-03T07:48:35.972Z,42.20
2022-08-03T07:53:47.822Z,42.20
2022-08-03T07:58:51.416Z,42.90
2022-08-03T08:03:54.314Z,42.33
2022-08-03T08:09:01.725Z,42.13
2022-08-03T08:14:05.440Z,42.00
2022-08-03T08:19:08.371Z,42.05
2022-08-03T08:24:18.283Z,42.17
2022-08-03T08:29:23.233Z,41.55
2022-08-03T08:34:26.192Z,43.05
2022-08-03T08:39:30.500Z,42.35
2022-08-03T08:44:33.538Z,42.55
2022-08-03T08:49:49.357Z,41.90
2022-08-03T08:55:05.017Z,41.83
2022-08-03T09:00:14.248Z,42.72
2022-08-03T09:05:22.529Z,42.58
2022-08-03T09:10:38.010Z,41.65
2022-08-03T09:15:42.420Z,42.63
2022-08-03T09:21:30.516Z,42.75
2022-08-03T09:26:38.641Z,42.38
2022-08-03T09:31:44.210Z,42.72
2022-08-03T09:36:49.181Z,42.15
2022-08-03T09:42:07.031Z,42.92
2022-08-03T09:47:11.157Z,42.65
2022-08-03T09:52:39.470Z,41.95
2022-08-03T09:57:41.010Z,42.35
2022-08-03T10:02:50.645Z,42.55
2022-08-03T10:07:53.542Z,42.22
2022-08-03T10:12:58.037Z,42.58
2022-08-03T10:18:01.207Z,42.65
2022-08-03T10:23:04.527Z,42.17
2022-08-03T10:28:11.419Z,41.03
2022-08-03T10:33:51.253Z,42.38
2022-08-03T10:38:46.080Z,41.25
2022-08-03T10:43:53.892Z,41.20
2022-08-03T10:48:58.180Z,41.45
2022-08-03T10:54:01.519Z,42.05
2022-08-03T10:59:06.300Z,42.08
2022-08-03T11:04:22.192Z,41.83
2022-08-03T11:09:25.198Z,42.08
2022-08-03T11:14:30.014Z,42.50
2022-08-03T11:19:57.950Z,41.63
2022-08-03T11:25:01.803Z,42.03
2022-08-03T11:30:09.036Z,42.30
2022-08-03T11:35:13.816Z,42.05
2022-08-03T11:40:35.000Z,42.25
2022-08-03T11:45:39.701Z,42.50
2022-08-03T11:50:45.250Z,42.35
2022-08-03T11:55:49.864Z,42.85
2022-08-03T12:00:54.324Z,42.25
2022-08-03T12:05:57.281Z,42.45
2022-08-03T12:11:03.079Z,42.33
2022-08-03T12:16:07.909Z,43.05
2022-08-03T12:21:12.303Z,42.70
2022-08-03T12:26:15.501Z,42.17
2022-08-03T12:31:20.136Z,42.35
2022-08-03T12:36:23.568Z,42.75
2022-08-03T12:41:31.398Z,42.25
2022-08-03T12:46:37.108Z,42.47
2022-08-03T12:51:57.859Z,42.35
2022-08-03T12:57:02.215Z,42.40
2022-08-03T13:02:09.789Z,41.65
2022-08-03T13:07:14.444Z,42.42
2022-08-03T13:12:18.906Z,42.38
2022-08-03T13:17:23.238Z,42.03
2022-08-03T13:22:28.890Z,42.05
2022-08-03T13:28:03.863Z,42.33
2022-08-03T13:32:58.478Z,41.65
2022-08-03T13:38:01.900Z,42.25
2022-08-03T13:43:04.951Z,41.75
2022-08-03T13:48:09.388Z,41.85
2022-08-03T13:53:13.328Z,42.60
2022-08-03T13:58:16.576Z,42.13
2022-08-03T14:03:21.354Z,41.92
2022-08-03T14:08:24.602Z,42.38
2022-08-03T14:13:27.699Z,42.35
2022-08-03T14:18:33.853Z,42.97
2022-08-03T14:23:38.546Z,42.40
2022-08-03T14:28:41.852Z,42.03
2022-08-03T14:33:46.161Z,42.10
2022-08-03T14:38:49.205Z,42.20
2022-08-03T14:44:01.098Z,41.97
2022-08-03T14:50:34.416Z,41.60
2022-08-03T14:54:46.071Z,41.58
2022-08-03T14:59:57.451Z,41.78
2022-08-03T15:10:20.130Z,41.83
2022-08-03T15:16:11.549Z,41.85
2022-08-03T15:21:20.793Z,42.38
2022-08-03T15:26:41.816Z,41.72
2022-08-03T15:31:55.831Z,42.08
2022-08-03T15:37:00.501Z,41.92
2022-08-03T15:42:03.938Z,41.75
2022-08-03T15:47:07.289Z,41.83
2022-08-03T15:52:15.631Z,41.67
2022-08-03T15:57:19.066Z,41.95
2022-08-03T16:02:22.342Z,41.78
2022-08-03T16:07:40.738Z,42.28
2022-08-03T16:13:10.911Z,42.25
2022-08-03T16:18:14.748Z,41.97
2022-08-03T16:23:21.935Z,42.40
2022-08-03T16:28:31.161Z,42.35
2022-08-03T16:33:34.814Z,42.05
2022-08-03T16:38:40.891Z,42.25
2022-08-03T16:43:46.597Z,42.38
2022-08-03T16:48:49.760Z,42.15
2022-08-03T16:54:07.234Z,42.47
2022-08-03T16:59:15.496Z,42.00
2022-08-03T17:04:18.653Z,42.53
2022-08-03T17:09:23.243Z,42.17
2022-08-03T17:14:28.466Z,42.20
2022-08-03T17:19:34.957Z,42.13
2022-08-03T17:24:45.280Z,42.08
2022-08-03T17:29:51.601Z,42.20
2022-08-03T17:34:57.673Z,42.35
2022-08-03T17:40:03.899Z,42.55
2022-08-03T17:45:15.567Z,42.17
2022-08-03T17:50:23.562Z,42.20
2022-08-03T17:55:57.601Z,42.28
2022-08-03T18:01:59.842Z,42.28
2022-08-03T18:06:59.839Z,42.47
2022-08-03T18:12:15.143Z,42.30
2022-08-03T18:17:54.942Z,43.30
2022-08-03T18:28:50.664Z,42.05
2022-08-03T18:34:16.748Z,42.25
2022-08-03T18:39:17.968Z,42.45
2022-08-03T18:44:53.510Z,42.67
2022-08-03T18:50:07.018Z,43.00
2022-08-03T18:55:20.648Z,42.45
2022-08-03T19:00:54.454Z,42.47
2022-08-03T19:06:13.319Z,42.25
2022-08-03T19:11:28.043Z,42.47
2022-08-03T19:16:38.848Z,42.35
2022-08-03T19:22:11.559Z,42.58
2022-08-03T19:27:16.101Z,42.15
2022-08-03T19:32:20.862Z,42.10
2022-08-03T19:37:24.045Z,42.05
2022-08-03T19:42:45.432Z,42.80
2022-08-03T19:47:54.541Z,42.33
2022-08-03T19:52:58.312Z,42.88
2022-08-03T19:58:03.967Z,42.30
2022-08-03T20:03:18.257Z,42.67
2022-08-03T20:08:27.262Z,42.17
2022-08-03T20:13:32.206Z,42.08
2022-08-03T20:18:43.650Z,41.85
2022-08-03T20:24:01.630Z,42.53
2022-08-03T20:29:10.242Z,42.15
2022-08-03T20:34:17.554Z,42.42
2022-08-03T20:39:20.749Z,42.25
2022-08-03T20:44:26.832Z,41.90
2022-08-03T20:49:45.913Z,41.75
2022-08-03T20:54:49.818Z,41.85
2022-08-03T20:59:53.782Z,42.30
2022-08-03T21:05:03.682Z,42.15
2022-08-03T21:10:15.383Z,42.28
2022-08-03T21:13:04.599Z,42.75
2022-08-03T21:16:02.492Z,41.80
2022-08-03T21:20:48.006Z,42.50
2022-08-03T21:25:52.034Z,42.47
2022-08-03T21:30:55.727Z,41.90
2022-08-03T21:36:01.880Z,42.10
2022-08-03T21:41:08.795Z,41.90
2022-08-03T21:46:14.009Z,41.72
2022-08-03T21:51:20.925Z,42.03
2022-08-03T21:56:27.055Z,41.53
2022-08-03T22:01:35.382Z,41.85
2022-08-03T22:06:42.429Z,41.95
2022-08-03T22:11:47.930Z,41.25
2022-08-03T22:16:50.939Z,41.83
2022-08-03T22:21:55.483Z,41.08
2022-08-03T22:27:16.655Z,41.53
2022-08-03T22:32:19.657Z,41.45
2022-08-03T22:37:27.727Z,41.55
2022-08-03T22:42:35.138Z,41.83
2022-08-03T22:47:40.652Z,41.60
2022-08-03T22:52:45.840Z,42.08
2022-08-03T22:57:50.956Z,40.88
2022-08-03T23:03:03.126Z,41.22
2022-08-03T23:08:10.624Z,41.20
2022-08-03T23:13:14.303Z,41.50
2022-08-03T23:18:17.934Z,41.00
2022-08-03T23:23:22.202Z,41.03
2022-08-03T23:28:27.308Z,41.30
2022-08-03T23:33:31.668Z,41.22
2022-08-03T23:38:37.705Z,41.20
2022-08-03T23:43:52.396Z,40.95
2022-08-03T23:48:58.437Z,41.05
2022-08-03T23:54:10.803Z,41.17
2022-08-03T23:59:22.589Z,41.10
